createdAt,value
2022-11-24T00:00:52.305Z,6.14
2022-11-24T00:01:52.325Z,6.11
2022-11-24T00:02:52.378Z,6.15
2022-11-24T00:03:52.259Z,6.12
2022-11-24T00:04:52.234Z,6.14
2022-11-24T00:05:52.237Z,6.17
2022-11-24T00:06:52.227Z,6.09
2022-11-24T00:07:52.276Z,6.12
2022-11-24T00:08:52.209Z,6.14
2022-11-24T00:09:52.200Z,6.12
2022-11-24T00:10:52.171Z,6.15
2022-11-24T00:11:52.177Z,6.18
2022-11-24T00:12:52.154Z,6.19
2022-11-24T00:13:52.135Z,6.17
2022-11-24T00:14:52.157Z,6.19
2022-11-24T00:15:52.113Z,6.11
2022-11-24T00:16:52.204Z,6.19
2022-11-24T00:17:52.088Z,6.15
2022-11-24T00:18:52.098Z,6.17
2022-11-24T00:19:52.074Z,6.22
2022-11-24T00:20:52.094Z,6.22
2022-11-24T00:21:52.099Z,6.21
2022-11-24T00:22:52.033Z,6.17
2022-11-24T00:23:52.023Z,6.18
2022-11-24T00:24:52.016Z,6.28
2022-11-24T00:25:52.007Z,6.28
2022-11-24T00:26:52.013Z,6.21
2022-11-24T00:27:51.990Z,6.27
2022-11-24T00:28:51.967Z,6.31
2022-11-24T00:29:51.964Z,6.31
2022-11-24T00:30:51.988Z,6.28
2022-11-24T00:31:51.972Z,6.30
2022-11-24T00:32:51.952Z,6.28
2022-11-24T00:33:51.921Z,6.33
2022-11-24T00:34:51.900Z,6.30
2022-11-24T00:35:51.884Z,6.34
2022-11-24T00:36:51.893Z,6.40
2022-11-24T00:37:51.902Z,6.34
2022-11-24T00:38:51.858Z,6.43
2022-11-24T00:39:51.838Z,6.40
2022-11-24T00:40:51.825Z,6.37
2022-11-24T00:41:51.845Z,6.44
2022-11-24T00:42:51.829Z,6.44
2022-11-24T00:43:51.802Z,6.31
2022-11-24T00:44:51.821Z,6.43
2022-11-24T00:45:51.917Z,6.41
2022-11-24T00:46:51.930Z,6.48
2022-11-24T00:47:51.759Z,6.41
2022-11-24T00:48:51.763Z,6.46
2022-11-24T00:49:51.735Z,6.40
2022-11-24T00:50:51.733Z,6.38
2022-11-24T00:51:51.714Z,6.33
2022-11-24T00:52:51.746Z,6.28
2022-11-24T00:53:51.705Z,6.34
2022-11-24T00:54:51.680Z,6.31
2022-11-24T00:55:51.686Z,6.33
2022-11-24T00:56:51.656Z,6.27
2022-11-24T00:57:51.674Z,6.33
2022-11-24T00:58:51.633Z,6.34
2022-11-24T00:59:51.623Z,6.25
2022-11-24T01:00:51.631Z,6.15
2022-11-24T01:01:51.664Z,6.15
2022-11-24T01:02:51.686Z,6.06
2022-11-24T01:03:51.575Z,5.99
2022-11-24T01:04:51.577Z,5.99
2022-11-24T01:05:51.555Z,6.03
2022-11-24T01:06:51.556Z,6.09
2022-11-24T01:07:51.649Z,6.09
2022-11-24T01:08:51.552Z,6.12
2022-11-24T01:09:51.536Z,6.11
2022-11-24T01:10:51.522Z,6.09
2022-11-24T01:11:51.515Z,6.11
2022-11-24T01:12:51.479Z,6.15
2022-11-24T01:13:51.463Z,6.15
2022-11-24T01:14:51.453Z,6.19
2022-11-24T01:15:51.487Z,6.17
2022-11-24T01:16:51.442Z,6.27
2022-11-24T01:17:51.428Z,6.44
2022-11-24T01:18:51.413Z,6.44
2022-11-24T01:19:51.399Z,6.49
2022-11-24T01:20:51.416Z,6.41
2022-11-24T01:21:51.371Z,6.38
2022-11-24T01:22:51.372Z,6.38
2022-11-24T01:23:51.382Z,6.48
2022-11-24T01:24:51.339Z,6.48
2022-11-24T01:25:51.422Z,6.46
2022-11-24T01:26:51.343Z,6.48
2022-11-24T01:27:51.324Z,6.44
2022-11-24T01:28:51.348Z,6.48
2022-11-24T01:29:51.341Z,6.44
2022-11-24T01:30:51.350Z,6.48
2022-11-24T01:31:51.282Z,6.40
2022-11-24T01:32:51.257Z,6.44
2022-11-24T01:33:51.247Z,6.48
2022-11-24T01:34:51.233Z,6.41
2022-11-24T01:35:51.215Z,6.44
2022-11-24T01:36:51.230Z,6.44
2022-11-24T01:37:51.203Z,6.40
2022-11-24T01:38:51.191Z,6.49
2022-11-24T01:39:51.178Z,6.43
2022-11-24T01:40:51.190Z,6.48
2022-11-24T01:41:51.193Z,6.49
2022-11-24T01:42:51.143Z,6.49
2022-11-24T01:43:51.127Z,6.48
2022-11-24T01:44:51.132Z,6.40
2022-11-24T01:45:51.192Z,6.49
2022-11-24T01:46:51.128Z,6.46
2022-11-24T01:47:51.130Z,6.27
2022-11-24T01:48:51.076Z,6.31
2022-11-24T01:49:51.072Z,6.31
2022-11-24T01:50:51.063Z,6.27
2022-11-24T01:51:51.050Z,6.28
2022-11-24T01:52:51.072Z,6.21
2022-11-24T01:53:51.018Z,6.25
2022-11-24T01:54:51.026Z,6.41
2022-11-24T01:55:51.049Z,6.43
2022-11-24T01:56:50.986Z,6.46
2022-11-24T01:57:51.013Z,6.38
2022-11-24T01:58:50.995Z,6.40
2022-11-24T01:59:50.945Z,6.44
2022-11-24T02:00:50.948Z,6.30
2022-11-24T02:01:50.977Z,6.33
2022-11-24T02:02:51.048Z,6.31
2022-11-24T02:03:50.924Z,6.40
2022-11-24T02:04:50.893Z,6.34
2022-11-24T02:05:50.889Z,6.31
2022-11-24T02:06:50.877Z,6.34
2022-11-24T02:07:50.967Z,6.27
2022-11-24T02:08:50.860Z,6.31
2022-11-24T02:09:50.842Z,6.41
2022-11-24T02:10:50.840Z,6.40
2022-11-24T02:11:50.824Z,6.38
2022-11-24T02:12:50.827Z,6.43
2022-11-24T02:13:50.811Z,6.28
2022-11-24T02:14:50.801Z,6.40
2022-11-24T02:15:50.874Z,6.27
2022-11-24T02:16:50.762Z,6.28
2022-11-24T02:17:50.772Z,6.27
2022-11-24T02:18:50.760Z,6.36
2022-11-24T02:19:50.779Z,6.28
2022-11-24T02:20:50.732Z,6.41
2022-11-24T02:21:50.709Z,6.27
2022-11-24T02:22:50.708Z,6.38
2022-11-24T02:23:50.738Z,6.38
2022-11-24T02:24:50.673Z,6.44
2022-11-24T02:25:50.670Z,6.28
2022-11-24T02:26:50.675Z,6.40
2022-11-24T02:27:53.838Z,6.46
2022-11-24T02:28:50.645Z,6.48
2022-11-24T02:29:50.634Z,6.48
2022-11-24T02:30:50.667Z,6.55
2022-11-24T02:31:50.616Z,6.61
2022-11-24T02:32:50.608Z,6.62
2022-11-24T02:33:50.573Z,6.59
2022-11-24T02:34:50.565Z,6.58
2022-11-24T02:35:50.575Z,6.54
2022-11-24T02:36:50.551Z,6.52
2022-11-24T02:37:50.544Z,6.48
2022-11-24T02:38:50.546Z,6.43
2022-11-24T02:39:50.506Z,6.46
2022-11-24T02:40:50.492Z,6.46
2022-11-24T02:41:50.494Z,6.43
2022-11-24T02:42:50.510Z,6.46
2022-11-24T02:43:50.525Z,6.43
2022-11-24T02:44:50.486Z,6.44
2022-11-24T02:45:50.520Z,6.43
2022-11-24T02:46:50.446Z,6.44
2022-11-24T02:47:50.524Z,6.46
2022-11-24T02:48:50.431Z,6.51
2022-11-24T02:49:50.464Z,6.48
2022-11-24T02:50:50.428Z,6.51
2022-11-24T02:51:50.381Z,6.52
2022-11-24T02:52:50.510Z,6.52
2022-11-24T02:53:50.401Z,6.55
2022-11-24T02:54:50.361Z,6.54
2022-11-24T02:55:50.369Z,6.49
2022-11-24T02:56:50.323Z,6.52
2022-11-24T02:57:50.318Z,6.55
2022-11-24T02:58:50.326Z,6.54
2022-11-24T02:59:50.293Z,6.52
2022-11-24T03:00:50.320Z,6.44
2022-11-24T03:01:50.351Z,6.52
2022-11-24T03:02:50.344Z,6.56
2022-11-24T03:03:50.247Z,6.51
2022-11-24T03:04:50.255Z,6.54
2022-11-24T03:05:50.226Z,6.52
2022-11-24T03:06:50.216Z,6.51
2022-11-24T03:07:50.266Z,6.62
2022-11-24T03:08:50.192Z,6.59
2022-11-24T03:09:50.199Z,6.58
2022-11-24T03:10:50.199Z,6.69
2022-11-24T03:11:50.174Z,6.71
2022-11-24T03:12:50.142Z,6.66
2022-11-24T03:13:50.178Z,6.62
2022-11-24T03:14:50.173Z,6.66
2022-11-24T03:15:50.207Z,6.67
2022-11-24T03:16:50.096Z,6.61
2022-11-24T03:17:50.115Z,6.64
2022-11-24T03:18:50.166Z,6.61
2022-11-24T03:19:50.065Z,6.48
2022-11-24T03:20:50.110Z,6.48
2022-11-24T03:21:50.044Z,6.54
2022-11-24T03:22:50.035Z,6.52
2022-11-24T03:23:50.057Z,6.51
2022-11-24T03:24:50.034Z,6.48
2022-11-24T03:25:50.018Z,6.49
2022-11-24T03:26:50.019Z,6.49
2022-11-24T03:27:50.049Z,6.59
2022-11-24T03:28:49.974Z,6.61
2022-11-24T03:29:49.965Z,6.56
2022-11-24T03:30:49.976Z,6.58
2022-11-24T03:31:49.979Z,6.59
2022-11-24T03:32:49.923Z,6.62
2022-11-24T03:33:49.965Z,6.59
2022-11-24T03:34:49.913Z,6.62
2022-11-24T03:35:49.914Z,6.58
2022-11-24T03:36:49.921Z,6.55
2022-11-24T03:37:49.921Z,6.70
2022-11-24T03:38:49.940Z,6.59
2022-11-24T03:39:49.871Z,6.69
2022-11-24T03:40:49.851Z,6.59
2022-11-24T03:41:49.824Z,6.64
2022-11-24T03:42:49.813Z,6.64
2022-11-24T03:43:49.840Z,6.71
2022-11-24T03:44:49.809Z,6.58
2022-11-24T03:45:49.839Z,6.64
2022-11-24T03:46:49.829Z,6.62
2022-11-24T03:47:49.756Z,6.67
2022-11-24T03:48:49.798Z,6.69
2022-11-24T03:49:49.768Z,6.71
2022-11-24T03:50:49.773Z,6.62
2022-11-24T03:51:49.734Z,6.69
2022-11-24T03:52:49.724Z,6.59
2022-11-24T03:53:49.692Z,6.59
2022-11-24T03:54:49.679Z,6.61
2022-11-24T03:55:49.690Z,6.69
2022-11-24T03:56:49.679Z,6.62
2022-11-24T03:57:49.668Z,6.70
2022-11-24T03:58:49.667Z,6.70
2022-11-24T03:59:49.634Z,6.61
2022-11-24T04:00:49.612Z,6.70
2022-11-24T04:01:49.655Z,6.62
2022-11-24T04:02:49.667Z,6.69
2022-11-24T04:03:49.583Z,6.77
2022-11-24T04:04:49.897Z,6.77
2022-11-24T04:05:49.570Z,6.79
2022-11-24T04:06:49.564Z,6.74
2022-11-24T04:07:49.604Z,6.79
2022-11-24T04:08:49.525Z,6.76
2022-11-24T04:09:49.522Z,6.84
2022-11-24T04:10:49.501Z,6.74
2022-11-24T04:11:49.535Z,6.76
2022-11-24T04:12:49.477Z,6.79
2022-11-24T04:13:49.473Z,6.74
2022-11-24T04:14:49.463Z,6.64
2022-11-24T04:15:49.504Z,6.69
2022-11-24T04:16:49.433Z,6.66
2022-11-24T04:17:49.448Z,6.76
2022-11-24T04:18:49.415Z,6.74
2022-11-24T04:19:49.411Z,6.74
2022-11-24T04:20:49.408Z,6.76
2022-11-24T04:21:49.389Z,6.84
2022-11-24T04:22:49.397Z,6.74
2022-11-24T04:23:49.355Z,6.79
2022-11-24T04:24:49.350Z,6.87
2022-11-24T04:25:49.357Z,6.84
2022-11-24T04:26:49.330Z,6.80
2022-11-24T04:27:49.311Z,6.74
2022-11-24T04:28:49.323Z,6.80
2022-11-24T04:29:49.288Z,6.84
2022-11-24T04:30:49.319Z,6.95
2022-11-24T04:31:49.360Z,6.92
2022-11-24T04:32:49.278Z,6.89
2022-11-24T04:33:49.256Z,6.89
2022-11-24T04:34:49.232Z,6.89
2022-11-24T04:35:49.259Z,6.85
2022-11-24T04:36:49.208Z,6.84
2022-11-24T04:37:49.223Z,6.87
2022-11-24T04:39:22.942Z,6.77
2022-11-24T04:39:50.388Z,6.81
2022-11-24T04:40:49.188Z,6.77
2022-11-24T04:41:49.176Z,6.80
2022-11-24T04:42:49.212Z,6.88
2022-11-24T04:43:49.157Z,6.88
2022-11-24T04:44:49.122Z,6.91
2022-11-24T04:45:49.113Z,6.85
2022-11-24T04:46:49.145Z,6.77
2022-11-24T04:47:49.128Z,6.85
2022-11-24T04:48:49.112Z,6.92
2022-11-24T04:49:49.086Z,6.79
2022-11-24T04:50:49.091Z,6.73
2022-11-24T04:51:49.046Z,6.79
2022-11-24T04:52:49.077Z,6.80
2022-11-24T04:53:49.055Z,6.80
2022-11-24T04:54:49.028Z,6.73
2022-11-24T04:55:49.040Z,6.79
2022-11-24T04:56:48.990Z,6.81
2022-11-24T04:57:48.993Z,6.79
2022-11-24T04:58:48.973Z,6.79
2022-11-24T04:59:48.959Z,6.79
2022-11-24T05:00:48.955Z,6.84
2022-11-24T05:01:48.973Z,6.76
2022-11-24T05:02:48.917Z,6.71
2022-11-24T05:03:48.956Z,6.79
2022-11-24T05:04:48.988Z,6.73
2022-11-24T05:05:48.886Z,6.71
2022-11-24T05:06:48.896Z,6.73
2022-11-24T05:07:48.957Z,6.66
2022-11-24T05:08:48.850Z,6.67
2022-11-24T05:09:59.424Z,6.64
2022-11-24T05:10:49.846Z,6.70
2022-11-24T05:11:48.825Z,6.61
2022-11-24T05:12:51.406Z,6.67
2022-11-24T05:13:48.834Z,6.59
2022-11-24T05:14:48.807Z,6.64
2022-11-24T05:15:48.846Z,6.62
2022-11-24T05:16:48.768Z,6.56
2022-11-24T05:17:48.764Z,6.59
2022-11-24T05:18:48.771Z,6.67
2022-11-24T05:19:48.735Z,6.48
2022-11-24T05:20:48.840Z,6.51
2022-11-24T05:21:48.733Z,6.61
2022-11-24T05:22:48.699Z,6.67
2022-11-24T05:23:48.720Z,6.66
2022-11-24T05:24:48.703Z,6.73
2022-11-24T05:25:48.709Z,6.73
2022-11-24T05:26:48.687Z,6.66
2022-11-24T05:27:48.663Z,6.56
2022-11-24T05:28:48.638Z,6.67
2022-11-24T05:29:48.642Z,6.64
2022-11-24T05:30:48.617Z,6.69
2022-11-24T05:31:48.710Z,6.59
2022-11-24T05:32:48.586Z,6.70
2022-11-24T05:33:48.600Z,6.80
2022-11-24T05:34:48.577Z,6.79
2022-11-24T05:35:48.566Z,6.69
2022-11-24T05:36:48.539Z,6.76
2022-11-24T05:37:48.580Z,6.76
2022-11-24T05:38:48.527Z,6.77
2022-11-24T05:39:48.535Z,6.77
2022-11-24T05:40:48.502Z,6.73
2022-11-24T05:41:48.549Z,6.67
2022-11-24T05:42:48.529Z,6.58
2022-11-24T05:43:48.556Z,6.67
2022-11-24T05:44:48.469Z,6.59
2022-11-24T05:45:48.476Z,6.67
2022-11-24T05:46:48.527Z,6.64
2022-11-24T05:47:48.456Z,6.64
2022-11-24T05:48:48.571Z,6.67
2022-11-24T05:49:48.439Z,6.61
2022-11-24T05:50:48.385Z,6.58
2022-11-24T05:51:48.488Z,6.70
2022-11-24T05:52:48.386Z,6.69
2022-11-24T05:53:48.359Z,6.71
2022-11-24T05:54:48.386Z,6.67
2022-11-24T05:55:48.355Z,6.77
2022-11-24T05:56:48.347Z,6.73
2022-11-24T05:57:48.328Z,6.69
2022-11-24T05:58:48.324Z,6.69
2022-11-24T05:59:48.329Z,6.70
2022-11-24T06:00:48.277Z,6.74
2022-11-24T06:01:48.606Z,6.71
2022-11-24T06:02:48.627Z,6.71
2022-11-24T06:03:48.253Z,6.80
2022-11-24T06:04:48.249Z,6.84
2022-11-24T06:05:49.191Z,6.92
2022-11-24T06:06:48.267Z,6.88
2022-11-24T06:07:48.264Z,6.89
2022-11-24T06:08:48.242Z,6.88
2022-11-24T06:09:48.511Z,6.85
2022-11-24T06:10:48.162Z,6.88
2022-11-24T06:11:48.217Z,6.88
2022-11-24T06:12:48.192Z,6.87
2022-11-24T06:13:48.248Z,6.88
2022-11-24T06:14:48.135Z,6.92
2022-11-24T06:15:48.113Z,6.92
2022-11-24T06:16:48.172Z,6.97
2022-11-24T06:17:48.138Z,6.95
2022-11-24T06:18:48.116Z,6.92
2022-11-24T06:19:48.078Z,6.94
2022-11-24T06:21:09.151Z,6.92
2022-11-24T06:21:49.067Z,6.92
2022-11-24T06:22:48.041Z,6.94
2022-11-24T06:23:48.019Z,6.94
2022-11-24T06:24:48.078Z,7.10
2022-11-24T06:25:51.522Z,7.12
2022-11-24T06:26:48.035Z,6.99
2022-11-24T06:27:48.012Z,6.98
2022-11-24T06:28:48.046Z,7.13
2022-11-24T06:29:47.972Z,6.99
2022-11-24T06:30:47.984Z,7.03
2022-11-24T06:31:48.063Z,6.94
2022-11-24T06:32:50.028Z,6.98
2022-11-24T06:33:47.948Z,6.94
2022-11-24T06:34:47.957Z,6.91
2022-11-24T06:35:47.896Z,6.97
2022-11-24T06:36:47.881Z,6.91
2022-11-24T06:37:47.868Z,6.92
2022-11-24T06:38:47.892Z,6.95
2022-11-24T06:39:47.928Z,6.89
2022-11-24T06:40:47.847Z,6.95
2022-11-24T06:41:47.824Z,6.89
2022-11-24T06:42:47.840Z,6.94
2022-11-24T06:43:47.858Z,6.98
2022-11-24T06:44:47.824Z,6.88
2022-11-24T06:45:47.901Z,6.88
2022-11-24T06:46:47.785Z,6.89
2022-11-24T06:47:47.765Z,6.91
2022-11-24T06:48:47.779Z,6.95
2022-11-24T06:49:47.764Z,6.95
2022-11-24T06:50:47.751Z,6.88
2022-11-24T06:51:47.724Z,6.88
2022-11-24T06:52:47.796Z,6.77
2022-11-24T06:53:47.717Z,6.84
2022-11-24T06:54:47.690Z,6.80
2022-11-24T06:55:47.684Z,6.66
2022-11-24T06:56:47.700Z,6.61
2022-11-24T06:57:47.662Z,6.74
2022-11-24T06:58:47.715Z,6.77
2022-11-24T06:59:47.620Z,6.79
2022-11-24T07:00:47.682Z,6.79
2022-11-24T07:01:47.635Z,6.76
2022-11-24T07:02:47.667Z,6.80
2022-11-24T07:03:47.639Z,6.71
2022-11-24T07:04:47.616Z,6.80
2022-11-24T07:05:47.571Z,6.74
2022-11-24T07:06:47.581Z,6.76
2022-11-24T07:07:47.626Z,6.84
2022-11-24T07:08:47.596Z,6.87
2022-11-24T07:09:47.524Z,6.92
2022-11-24T07:10:47.506Z,6.94
2022-11-24T07:11:47.514Z,6.95
2022-11-24T07:12:47.512Z,7.02
2022-11-24T07:13:47.533Z,7.10
2022-11-24T07:14:47.511Z,7.12
2022-11-24T07:15:47.512Z,7.15
2022-11-24T07:16:47.495Z,7.23
2022-11-24T07:17:47.475Z,7.24
2022-11-24T07:18:47.446Z,7.17
2022-11-24T07:19:47.452Z,7.12
2022-11-24T07:20:47.397Z,7.09
2022-11-24T07:21:47.387Z,7.07
2022-11-24T07:22:47.374Z,7.12
2022-11-24T07:23:47.378Z,7.15
2022-11-24T07:24:47.379Z,7.20
2022-11-24T07:25:47.335Z,7.28
2022-11-24T07:26:47.350Z,7.25
2022-11-24T07:27:47.310Z,7.27
2022-11-24T07:28:47.327Z,7.28
2022-11-24T07:29:47.336Z,7.32
2022-11-24T07:30:47.325Z,7.35
2022-11-24T07:31:47.294Z,7.32
2022-11-24T07:32:47.292Z,7.43
2022-11-24T07:33:47.316Z,7.34
2022-11-24T07:34:47.241Z,7.42
2022-11-24T07:35:47.263Z,7.45
2022-11-24T07:36:47.220Z,7.42
2022-11-24T07:37:47.213Z,7.43
2022-11-24T07:38:47.230Z,7.46
2022-11-24T07:39:47.206Z,7.48
2022-11-24T07:40:47.191Z,7.52
2022-11-24T07:41:47.161Z,7.50
2022-11-24T07:42:47.171Z,7.58
2022-11-24T07:43:47.148Z,7.60
2022-11-24T07:44:47.123Z,7.63
2022-11-24T07:45:47.186Z,7.60
2022-11-24T07:46:47.183Z,7.68
2022-11-24T07:47:47.118Z,7.64
2022-11-24T07:48:47.120Z,7.68
2022-11-24T07:49:47.105Z,7.64
2022-11-24T07:50:49.947Z,7.64
2022-11-24T07:51:48.057Z,7.79
2022-11-24T07:52:47.050Z,7.85
2022-11-24T07:53:47.027Z,7.85
2022-11-24T07:54:47.073Z,7.87
2022-11-24T07:55:47.013Z,7.92
2022-11-24T07:56:47.023Z,7.93
2022-11-24T07:57:47.011Z,8.02
2022-11-24T07:58:52.494Z,8.00
2022-11-24T07:59:48.022Z,8.16
2022-11-24T08:00:46.952Z,8.16
2022-11-24T08:01:47.013Z,8.16
2022-11-24T08:02:46.923Z,8.22
2022-11-24T08:03:47.140Z,8.18
2022-11-24T08:04:46.923Z,8.16
2022-11-24T08:06:15.926Z,8.28
2022-11-24T08:06:47.968Z,8.30
2022-11-24T08:07:47.037Z,8.34
2022-11-24T08:08:46.913Z,8.34
2022-11-24T08:09:46.871Z,8.34
2022-11-24T08:10:46.828Z,8.30
2022-11-24T08:11:46.838Z,8.40
2022-11-24T08:12:46.822Z,8.43
2022-11-24T08:13:46.823Z,8.45
2022-11-24T08:14:46.814Z,8.52
2022-11-24T08:15:46.811Z,8.50
2022-11-24T08:16:46.866Z,8.53
2022-11-24T08:17:46.764Z,8.62
2022-11-24T08:18:46.774Z,8.61
2022-11-24T08:19:46.738Z,8.50
2022-11-24T08:20:46.842Z,8.53
2022-11-24T08:21:46.765Z,8.56
2022-11-24T08:22:46.740Z,8.58
2022-11-24T08:23:46.708Z,8.61
2022-11-24T08:24:46.715Z,8.55
2022-11-24T08:25:46.719Z,8.56
2022-11-24T08:26:46.677Z,8.65
2022-11-24T08:27:46.694Z,8.48
2022-11-24T08:28:46.637Z,8.53
2022-11-24T08:29:46.650Z,8.50
2022-11-24T08:30:46.686Z,8.55
2022-11-24T08:31:46.717Z,8.53
2022-11-24T08:32:46.652Z,8.55
2022-11-24T08:33:46.584Z,8.65
2022-11-24T08:34:46.569Z,8.62
2022-11-24T08:35:46.552Z,8.59
2022-11-24T08:36:46.597Z,8.63
2022-11-24T08:37:46.587Z,8.68
2022-11-24T08:38:46.553Z,8.65
2022-11-24T08:39:46.509Z,8.70
2022-11-24T08:40:46.516Z,8.65
2022-11-24T08:41:46.603Z,8.71
2022-11-24T08:42:46.516Z,8.83
2022-11-24T08:43:46.492Z,8.96
2022-11-24T08:44:46.520Z,9.10
2022-11-24T08:45:46.527Z,9.21
2022-11-24T08:46:46.492Z,9.39
2022-11-24T08:47:46.429Z,9.36
2022-11-24T08:48:46.435Z,9.54
2022-11-24T08:49:46.429Z,9.64
2022-11-24T08:50:46.402Z,9.72
2022-11-24T08:51:46.417Z,9.76
2022-11-24T08:52:46.379Z,9.89
2022-11-24T08:53:46.369Z,9.83
2022-11-24T08:54:46.340Z,9.78
2022-11-24T08:55:46.376Z,9.76
2022-11-24T08:56:46.355Z,9.79
2022-11-24T08:57:46.326Z,9.72
2022-11-24T08:58:46.407Z,9.86
2022-11-24T08:59:46.289Z,9.86
2022-11-24T09:00:46.312Z,9.89
2022-11-24T09:01:46.352Z,9.91
2022-11-24T09:02:46.292Z,9.94
2022-11-24T09:03:50.393Z,9.97
2022-11-24T09:04:46.267Z,9.96
2022-11-24T09:05:53.432Z,9.94
2022-11-24T09:06:47.261Z,9.97
2022-11-24T09:07:46.311Z,10.07
2022-11-24T09:08:46.237Z,9.97
2022-11-24T09:09:46.300Z,9.99
2022-11-24T09:10:46.266Z,10.12
2022-11-24T09:11:46.182Z,10.07
2022-11-24T09:12:46.162Z,10.09
2022-11-24T09:13:46.183Z,10.22
2022-11-24T09:14:46.125Z,10.17
2022-11-24T09:15:46.193Z,10.20
2022-11-24T09:16:46.160Z,10.18
2022-11-24T09:17:46.105Z,10.29
2022-11-24T09:18:46.108Z,10.27
2022-11-24T09:19:46.066Z,10.20
2022-11-24T09:20:46.115Z,10.29
2022-11-24T09:21:46.056Z,10.30
2022-11-24T09:22:46.046Z,10.32
2022-11-24T09:23:46.026Z,10.20
2022-11-24T09:24:46.060Z,10.09
2022-11-24T09:25:46.062Z,10.14
2022-11-24T09:26:47.651Z,10.07
2022-11-24T09:27:46.009Z,10.01
2022-11-24T09:28:45.997Z,9.93
2022-11-24T09:29:46.011Z,9.87
2022-11-24T09:30:45.982Z,9.87
2022-11-24T09:31:45.977Z,9.81
2022-11-24T09:32:45.932Z,9.76
2022-11-24T09:33:45.911Z,9.66
2022-11-24T09:34:45.906Z,9.74
2022-11-24T09:35:45.897Z,9.69
2022-11-24T09:36:45.875Z,9.71
2022-11-24T09:37:45.882Z,9.68
2022-11-24T09:38:45.862Z,9.72
2022-11-24T09:39:45.859Z,9.66
2022-11-24T09:40:45.840Z,9.78
2022-11-24T09:41:45.875Z,9.65
2022-11-24T09:42:50.630Z,9.71
2022-11-24T09:43:45.837Z,9.64
2022-11-24T09:44:45.791Z,9.66
2022-11-24T09:46:46.806Z,9.69
2022-11-24T09:47:45.806Z,9.71
2022-11-24T09:48:45.749Z,9.75
2022-11-24T09:49:50.948Z,9.68
2022-11-24T09:50:46.768Z,9.64
2022-11-24T09:51:45.746Z,9.61
2022-11-24T09:52:45.721Z,9.61
2022-11-24T09:53:45.789Z,9.60
2022-11-24T09:54:45.686Z,9.69
2022-11-24T09:55:45.697Z,9.71
2022-11-24T09:56:45.686Z,9.65
2022-11-24T09:57:45.658Z,9.68
2022-11-24T09:58:45.683Z,9.71
2022-11-24T09:59:45.628Z,9.71
2022-11-24T10:00:45.649Z,9.72
2022-11-24T10:01:45.715Z,9.74
2022-11-24T10:02:45.622Z,9.68
2022-11-24T10:03:45.633Z,9.60
2022-11-24T10:04:45.707Z,9.66
2022-11-24T10:05:45.562Z,9.65
2022-11-24T10:06:45.542Z,9.64
2022-11-24T10:07:45.614Z,9.61
2022-11-24T10:08:45.557Z,9.60
2022-11-24T10:09:45.582Z,9.50
2022-11-24T10:10:45.517Z,9.50
2022-11-24T10:11:45.496Z,9.53
2022-11-24T10:12:45.469Z,9.53
2022-11-24T10:13:45.509Z,9.47
2022-11-24T10:14:45.457Z,9.51
2022-11-24T10:15:45.815Z,9.50
2022-11-24T10:16:45.449Z,9.51
2022-11-24T10:17:45.437Z,9.47
2022-11-24T10:18:45.425Z,9.43
2022-11-24T10:19:45.483Z,9.47
2022-11-24T10:20:45.418Z,9.46
2022-11-24T10:21:45.391Z,9.39
2022-11-24T10:22:45.390Z,9.43
2022-11-24T10:23:45.420Z,9.46
2022-11-24T10:24:45.447Z,9.43
2022-11-24T10:25:45.323Z,9.50
2022-11-24T10:26:45.376Z,9.48
2022-11-24T10:27:45.340Z,9.38
2022-11-24T10:28:45.347Z,9.48
2022-11-24T10:29:45.325Z,9.53
2022-11-24T10:30:45.464Z,9.53
2022-11-24T10:31:45.253Z,9.51
2022-11-24T10:32:45.265Z,9.56
2022-11-24T10:33:45.311Z,9.53
2022-11-24T10:34:45.222Z,9.53
2022-11-24T10:35:45.215Z,9.53
2022-11-24T10:36:45.234Z,9.54
2022-11-24T10:37:45.258Z,9.48
2022-11-24T10:38:45.185Z,9.51
2022-11-24T10:39:45.174Z,9.54
2022-11-24T10:41:00.478Z,9.53
2022-11-24T10:41:46.165Z,9.48
2022-11-24T10:42:45.155Z,9.48
2022-11-24T10:43:45.134Z,9.51
2022-11-24T10:44:45.126Z,9.48
2022-11-24T10:45:45.165Z,9.53
2022-11-24T10:46:45.264Z,9.47
2022-11-24T10:47:45.118Z,9.48
2022-11-24T10:48:45.115Z,9.50
2022-11-24T10:49:45.082Z,9.47
2022-11-24T10:50:45.084Z,9.53
2022-11-24T10:51:45.095Z,9.46
2022-11-24T10:52:45.040Z,9.56
2022-11-24T10:53:45.116Z,9.43
2022-11-24T10:54:45.013Z,9.50
2022-11-24T10:55:45.015Z,9.51
2022-11-24T10:56:45.013Z,9.50
2022-11-24T10:57:44.972Z,9.61
2022-11-24T10:58:45.071Z,9.65
2022-11-24T10:59:44.941Z,9.75
2022-11-24T11:00:44.937Z,9.66
2022-11-24T11:01:45.052Z,9.74
2022-11-24T11:02:44.960Z,9.68
2022-11-24T11:03:44.900Z,9.75
2022-11-24T11:04:44.972Z,9.64
2022-11-24T11:05:44.941Z,9.74
2022-11-24T11:06:44.974Z,9.72
2022-11-24T11:07:44.929Z,9.76
2022-11-24T11:08:45.040Z,9.78
2022-11-24T11:09:44.850Z,9.75
2022-11-24T11:10:44.851Z,9.78
2022-11-24T11:11:44.812Z,9.75
2022-11-24T11:12:45.338Z,9.79
2022-11-24T11:13:44.820Z,9.69
2022-11-24T11:14:44.794Z,9.71
2022-11-24T11:15:44.876Z,9.72
2022-11-24T11:16:45.108Z,9.58
2022-11-24T11:17:44.773Z,9.65
2022-11-24T11:18:44.738Z,9.66
2022-11-24T11:19:49.408Z,9.65
2022-11-24T11:20:45.775Z,9.68
2022-11-24T11:21:44.722Z,9.69
2022-11-24T11:22:44.694Z,9.68
2022-11-24T11:23:44.693Z,9.68
2022-11-24T11:24:44.716Z,9.60
2022-11-24T11:25:44.670Z,9.61
2022-11-24T11:26:44.639Z,9.58
2022-11-24T11:27:44.663Z,9.69
2022-11-24T11:28:44.638Z,9.66
2022-11-24T11:34:02.973Z,9.81
2022-11-24T11:34:45.591Z,10.01
2022-11-24T11:35:44.572Z,10.17
2022-11-24T11:36:44.530Z,10.29
2022-11-24T11:37:44.543Z,10.25
2022-11-24T11:38:44.511Z,10.45
2022-11-24T11:39:48.669Z,10.55
2022-11-24T11:40:44.498Z,10.71
2022-11-24T11:41:44.488Z,10.89
2022-11-24T11:43:45.497Z,11.09
2022-11-24T11:44:44.512Z,11.17
2022-11-24T11:45:44.574Z,11.29
2022-11-24T11:46:44.512Z,11.35
2022-11-24T11:47:44.474Z,11.49
2022-11-24T11:48:44.415Z,11.58
2022-11-24T11:49:44.427Z,11.67
2022-11-24T11:51:14.921Z,11.46
2022-11-24T11:51:45.552Z,11.40
2022-11-24T11:52:44.360Z,11.40
2022-11-24T11:53:44.370Z,11.43
2022-11-24T11:54:44.843Z,11.44
2022-11-24T11:55:49.741Z,11.51
2022-11-24T11:56:45.482Z,11.57
2022-11-24T11:57:44.303Z,11.61
2022-11-24T11:58:44.334Z,11.64
2022-11-24T11:59:44.270Z,11.75
2022-11-24T12:00:44.285Z,11.75
2022-11-24T12:01:44.298Z,11.73
2022-11-24T12:02:48.547Z,11.69
2022-11-24T12:03:45.381Z,11.73
2022-11-24T12:04:44.214Z,11.72
2022-11-24T12:05:44.237Z,11.85
2022-11-24T12:06:44.287Z,12.05
2022-11-24T12:07:44.301Z,12.09
2022-11-24T12:09:18.023Z,12.10
2022-11-24T12:09:45.157Z,12.09
2022-11-24T12:10:44.183Z,12.23
2022-11-24T12:11:44.175Z,12.29
2022-11-24T12:12:44.141Z,12.31
2022-11-24T12:13:44.227Z,12.29
2022-11-24T12:14:44.179Z,12.42
2022-11-24T12:15:44.204Z,12.31
2022-11-24T12:16:44.125Z,12.23
2022-11-24T12:17:44.097Z,12.20
2022-11-24T12:18:59.540Z,12.04
2022-11-24T12:19:45.050Z,11.96
2022-11-24T12:20:44.062Z,11.90
2022-11-24T12:21:44.074Z,11.76
2022-11-24T12:22:44.023Z,11.57
2022-11-24T12:23:44.079Z,11.49
2022-11-24T12:24:44.087Z,11.44
2022-11-24T12:25:44.001Z,11.43
2022-11-24T12:26:43.980Z,11.35
2022-11-24T12:27:44.019Z,11.29
2022-11-24T12:28:43.978Z,11.33
2022-11-24T12:29:43.998Z,11.21
2022-11-24T12:30:43.983Z,11.24
2022-11-24T12:31:44.089Z,11.22
2022-11-24T12:32:43.915Z,11.25
2022-11-24T12:33:49.163Z,11.22
2022-11-24T12:34:44.908Z,11.33
2022-11-24T12:35:43.880Z,11.24
2022-11-24T12:36:43.881Z,11.27
2022-11-24T12:37:43.868Z,11.21
2022-11-24T12:38:43.859Z,11.19
2022-11-24T12:39:43.970Z,11.19
2022-11-24T12:40:47.191Z,11.15
2022-11-24T12:41:43.866Z,11.07
2022-11-24T12:42:43.820Z,11.02
2022-11-24T12:43:43.804Z,10.88
2022-11-24T12:44:43.810Z,10.85
2022-11-24T12:45:43.758Z,10.78
2022-11-24T12:46:43.897Z,10.74
2022-11-24T12:47:43.749Z,10.70
2022-11-24T12:48:43.836Z,10.76
2022-11-24T12:49:43.731Z,10.67
2022-11-24T12:50:43.771Z,10.63
2022-11-24T12:51:43.724Z,10.67
2022-11-24T12:52:43.715Z,10.53
2022-11-24T12:53:43.717Z,10.51
2022-11-24T12:54:43.666Z,10.48
2022-11-24T12:55:43.762Z,10.59
2022-11-24T12:56:43.679Z,10.56
2022-11-24T12:57:43.633Z,10.51
2022-11-24T12:58:43.629Z,10.55
2022-11-24T12:59:43.658Z,10.51
2022-11-24T13:00:43.615Z,10.53
2022-11-24T13:01:43.761Z,10.53
2022-11-24T13:02:43.837Z,10.59
2022-11-24T13:03:43.579Z,10.59
2022-11-24T13:04:43.574Z,10.53
2022-11-24T13:05:43.559Z,10.53
2022-11-24T13:06:49.129Z,10.45
2022-11-24T13:07:44.666Z,10.52
2022-11-24T13:08:43.561Z,10.41
2022-11-24T13:09:43.511Z,10.33
2022-11-24T13:10:58.828Z,10.36
2022-11-24T13:11:44.504Z,10.30
2022-11-24T13:12:43.484Z,10.26
2022-11-24T13:13:43.493Z,10.22
2022-11-24T13:14:43.439Z,10.23
2022-11-24T13:15:46.143Z,10.22
2022-11-24T13:16:59.556Z,10.15
2022-11-24T13:18:05.175Z,10.17
2022-11-24T13:18:44.475Z,10.17
2022-11-24T13:19:43.384Z,10.09
2022-11-24T13:20:43.372Z,10.17